Time;durP1;ratioP1;P1;durP2;ratioP2;P2;SDS_P1;SDS_P2;PMS_P1;PMS_P2;Temp;Humidity;BMP_temperature;BMP_pressure;BME280_temperature;BME280_humidity;BME280_pressure;Samples;Min_cycle;Max_cycle;Signal;HPM_P1;HPM_P2
2022/06/03 00:01:01;;;;;;;;;36.33;34.00;28.40;49.90;;;;;;4996791;28;8821;-77
2022/06/03 00:03:44;;;;;;;;;36.67;33.67;28.40;49.80;;;;;;4994597;28;8782;-77
2022/06/03 00:06:34;;;;;;;;;32.00;31.00;28.30;49.80;;;;;;4998019;28;8759;-77
2022/06/03 00:09:24;;;;;;;;;35.00;33.33;28.30;50.00;;;;;;4997584;28;8809;-76
2022/06/03 00:12:05;;;;;;;;;34.67;32.33;28.20;50.20;;;;;;4997603;28;8771;-77
2022/06/03 00:14:34;;;;;;;;;39.67;36.33;28.30;50.30;;;;;;4997534;28;8779;-76
2022/06/03 00:17:08;;;;;;;;;38.00;35.00;27.90;51.00;;;;;;4996467;28;8778;-77
2022/06/03 00:20:05;;;;;;;;;36.67;33.67;28.00;50.80;;;;;;4997776;28;8838;-77
2022/06/03 00:22:31;;;;;;;;;28.00;28.00;28.10;50.60;;;;;;4997444;28;8795;-76
2022/06/03 00:25:11;;;;;;;;;33.33;32.33;28.10;50.40;;;;;;4997389;28;8902;-76
2022/06/03 00:28:12;;;;;;;;;31.00;30.33;27.80;50.90;;;;;;4997392;28;8996;-77
2022/06/03 00:31:05;;;;;;;;;33.67;32.67;27.80;51.30;;;;;;4956425;28;8818;-77
2022/06/03 00:33:49;;;;;;;;;33.00;31.67;28.00;51.00;;;;;;4956405;28;8789;-76
2022/06/03 00:36:31;;;;;;;;;36.67;34.00;28.00;50.90;;;;;;4956334;28;8775;-77
2022/06/03 00:39:03;;;;;;;;;28.00;27.33;28.00;50.80;;;;;;4956715;28;8789;-77
2022/06/03 00:41:47;;;;;;;;;33.33;32.33;27.90;50.80;;;;;;4956314;28;8874;-77
2022/06/03 00:44:28;;;;;;;;;35.00;33.00;27.90;50.90;;;;;;4940173;28;8830;-76
2022/06/03 00:47:12;;;;;;;;;29.67;29.67;27.80;50.90;;;;;;4956090;28;8845;-77
2022/06/03 00:50:18;;;;;;;;;29.00;29.00;27.70;51.50;;;;;;4956334;28;8815;-77
2022/06/03 00:53:02;;;;;;;;;30.00;30.00;27.70;51.80;;;;;;4956220;28;8785;-77
2022/06/03 00:55:47;;;;;;;;;35.00;33.00;27.60;51.70;;;;;;4956227;28;8795;-76
2022/06/03 00:58:30;;;;;;;;;33.67;32.00;27.60;51.80;;;;;;4956011;28;8790;-76
2022/06/03 01:01:05;;;;;;;;;38.33;35.33;27.50;52.20;;;;;;4955946;28;8802;-76
2022/06/03 01:04:13;;;;;;;;;32.33;31.00;27.60;52.10;;;;;;4956008;28;8794;-76
2022/06/03 01:06:56;;;;;;;;;38.67;35.67;27.70;51.80;;;;;;4982561;28;8818;-79
2022/06/03 01:09:28;;;;;;;;;35.67;33.33;27.70;51.80;;;;;;4996833;28;8829;-74
2022/06/03 01:12:24;;;;;;;;;38.33;35.33;27.70;51.80;;;;;;4996503;28;8779;-75
2022/06/03 01:15:18;;;;;;;;;32.33;31.33;27.70;51.80;;;;;;4996564;28;8765;-75
2022/06/03 01:18:00;;;;;;;;;40.00;36.33;27.70;51.80;;;;;;4996352;28;8873;-76
2022/06/03 01:20:44;;;;;;;;;37.00;34.67;27.70;51.80;;;;;;4996201;28;8909;-76
2022/06/03 01:23:42;;;;;;;;;37.67;34.33;27.30;52.40;;;;;;4996500;28;8878;-75
2022/06/03 01:26:16;;;;;;;;;36.67;34.33;27.40;52.70;;;;;;4996559;28;9471;-75
2022/06/03 01:29:00;;;;;;;;;38.67;35.67;27.20;53.00;;;;;;4996180;28;9497;-76
2022/06/03 01:32:03;;;;;;;;;39.67;36.00;27.10;53.50;;;;;;4996167;28;8759;-76
2022/06/03 01:34:39;;;;;;;;;39.33;36.00;27.10;53.50;;;;;;4995092;28;8794;-75
2022/06/03 01:37:24;;;;;;;;;42.33;37.33;27.10;53.90;;;;;;4994953;28;8799;-75
2022/06/03 01:40:08;;;;;;;;;40.00;36.33;27.20;53.40;;;;;;4996332;28;8767;-76
2022/06/03 01:43:12;;;;;;;;;39.67;35.67;27.30;53.10;;;;;;4995918;28;8791;-77
2022/06/03 01:46:18;;;;;;;;;27.67;27.67;27.20;53.00;;;;;;4993909;28;8806;-75
2022/06/03 01:48:43;;;;;;;;;36.33;33.67;27.00;53.60;;;;;;4996044;28;8826;-76
2022/06/03 01:51:38;;;;;;;;;38.33;35.00;26.90;54.00;;;;;;4995698;28;8798;-76
2022/06/03 01:54:34;;;;;;;;;37.67;34.67;26.80;54.20;;;;;;4954703;28;8782;-76
2022/06/03 01:57:06;;;;;;;;;33.67;32.67;26.40;55.60;;;;;;4954968;28;8809;-75
2022/06/03 01:59:56;;;;;;;;;33.00;32.00;26.10;56.60;;;;;;4954916;28;8895;-76
2022/06/03 02:02:43;;;;;;;;;36.33;34.00;26.00;57.50;;;;;;4954902;28;9421;-76
2022/06/03 02:05:15;;;;;;;;;40.00;36.33;25.60;59.50;;;;;;4954680;28;8816;-76
2022/06/03 02:07:52;;;;;;;;;37.67;35.00;26.00;58.90;;;;;;4954679;28;9559;-76
2022/06/03 02:11:08;;;;;;;;;35.00;33.33;26.00;58.80;;;;;;4954939;28;8801;-76
2022/06/03 02:13:52;;;;;;;;;32.33;31.67;26.30;58.00;;;;;;4930648;28;8993;-76
2022/06/03 02:16:59;;;;;;;;;43.33;37.67;26.30;57.80;;;;;;4954684;28;8791;-76
2022/06/03 02:20:07;;;;;;;;;39.67;36.00;26.20;58.10;;;;;;4927037;28;8819;-76
2022/06/03 02:23:00;;;;;;;;;33.00;32.33;26.40;57.80;;;;;;4954467;28;8803;-76
2022/06/03 02:25:38;;;;;;;;;36.33;33.33;26.50;57.50;;;;;;4954412;28;8881;-78
2022/06/03 02:28:37;;;;;;;;;42.33;36.33;26.60;56.70;;;;;;4954438;28;8925;-77
2022/06/03 02:31:56;;;;;;;;;36.00;34.00;26.30;58.00;;;;;;4978318;28;8819;-77
2022/06/03 02:34:47;;;;;;;;;37.00;34.33;26.20;58.20;;;;;;4954084;28;8869;-75
2022/06/03 02:37:34;;;;;;;;;41.33;37.33;25.90;58.50;;;;;;4938259;28;8869;-76
2022/06/03 02:40:37;;;;;;;;;38.33;35.33;25.70;58.80;;;;;;4953763;29;9652;-76
2022/06/03 02:43:14;;;;;;;;;37.67;34.67;26.00;59.50;;;;;;4954161;28;8790;-76
2022/06/03 02:46:10;;;;;;;;;32.67;32.00;25.70;59.80;;;;;;4954225;28;8821;-76
2022/06/03 02:48:53;;;;;;;;;38.33;35.33;25.80;59.80;;;;;;4954096;28;8883;-75
2022/06/03 02:51:25;;;;;;;;;30.33;29.33;25.80;59.30;;;;;;4954164;29;8795;-76
2022/06/03 02:54:18;;;;;;;;;38.67;35.33;26.20;58.50;;;;;;4953928;29;8767;-77
2022/06/03 02:57:25;;;;;;;;;34.00;32.67;26.30;58.00;;;;;;4954180;29;8822;-75
2022/06/03 03:00:12;;;;;;;;;34.00;33.00;26.30;57.80;;;;;;4896549;29;8816;-76
2022/06/03 03:03:00;;;;;;;;;37.00;34.67;26.10;58.20;;;;;;4897079;29;8792;-75
2022/06/03 03:05:57;;;;;;;;;32.33;31.33;26.40;57.50;;;;;;4896927;29;8876;-76
2022/06/03 03:09:13;;;;;;;;;36.67;33.67;26.60;56.50;;;;;;4896793;29;8828;-76
2022/06/03 03:11:42;;;;;;;;;27.33;27.33;26.70;56.30;;;;;;4853627;29;8897;-74
2022/06/03 03:14:43;;;;;;;;;30.00;29.67;26.80;55.90;;;;;;4859676;29;8821;-77
2022/06/03 03:17:36;;;;;;;;;34.67;32.67;26.90;55.50;;;;;;4859640;29;8795;-78
2022/06/03 03:20:39;;;;;;;;;37.33;34.00;26.90;55.30;;;;;;4859751;29;8795;-77
2022/06/03 03:23:11;;;;;;;;;34.67;33.00;26.90;55.60;;;;;;4859580;29;8834;-76
2022/06/03 03:25:53;;;;;;;;;36.67;34.00;26.90;55.10;;;;;;4859614;29;8851;-76
2022/06/03 03:28:41;;;;;;;;;33.00;32.00;27.00;54.90;;;;;;4859504;29;8839;-76
2022/06/03 03:31:36;;;;;;;;;31.33;31.00;27.10;54.60;;;;;;4912019;29;8787;-75
2022/06/03 03:34:26;;;;;;;;;32.00;31.33;27.10;54.40;;;;;;4934690;29;8767;-76
2022/06/03 03:36:51;;;;;;;;;35.67;33.67;27.20;55.20;;;;;;4934620;29;8794;-77
2022/06/03 03:39:37;;;;;;;;;33.00;32.00;27.20;54.10;;;;;;4934647;29;8778;-76
2022/06/03 03:42:44;;;;;;;;;31.00;30.67;27.20;53.80;;;;;;4934666;29;8766;-76
2022/06/03 03:45:47;;;;;;;;;36.33;34.00;27.10;54.10;;;;;;4932584;29;8786;-76
2022/06/03 03:48:51;;;;;;;;;33.33;32.33;27.20;53.70;;;;;;4987972;28;8826;-75
2022/06/03 03:51:38;;;;;;;;;33.00;31.67;27.30;53.50;;;;;;4994587;28;8874;-75
2022/06/03 03:54:41;;;;;;;;;34.33;33.00;27.40;53.40;;;;;;4998000;28;8789;-75
2022/06/03 03:57:55;;;;;;;;;33.00;32.00;27.40;53.30;;;;;;4996889;28;8813;-76
2022/06/03 04:00:34;;;;;;;;;34.33;32.33;27.40;53.10;;;;;;4978750;28;9429;-78
2022/06/03 04:03:34;;;;;;;;;35.67;33.00;27.50;52.90;;;;;;4998049;28;9405;-78
2022/06/03 04:06:21;;;;;;;;;32.33;31.33;27.20;52.90;;;;;;4997901;28;8783;-76
2022/06/03 04:09:23;;;;;;;;;30.33;30.00;27.30;53.20;;;;;;4977165;28;9388;-78
2022/06/03 04:12:14;;;;;;;;;34.00;33.00;27.50;53.10;;;;;;4996531;28;8822;-77
2022/06/03 04:14:59;;;;;;;;;31.33;30.67;27.60;52.70;;;;;;4997549;28;8779;-78
2022/06/03 04:18:08;;;;;;;;;36.33;34.00;27.70;52.70;;;;;;4997349;28;8842;-77
2022/06/03 04:20:59;;;;;;;;;32.67;31.67;27.70;52.40;;;;;;4996801;28;8833;-80
2022/06/03 04:23:28;;;;;;;;;31.00;31.00;27.60;52.30;;;;;;4997140;28;8892;-80
2022/06/03 04:26:18;;;;;;;;;32.00;31.00;27.50;52.50;;;;;;4997334;28;8797;-77
2022/06/03 04:29:07;;;;;;;;;25.67;25.67;27.30;53.00;;;;;;4997389;28;8801;-78
2022/06/03 04:31:40;;;;;;;;;32.67;31.67;27.40;53.30;;;;;;4996986;28;8759;-77
2022/06/03 04:34:44;;;;;;;;;35.00;33.00;27.60;52.90;;;;;;4997135;28;8880;-77
2022/06/03 04:37:55;;;;;;;;;27.67;27.67;27.60;52.40;;;;;;4997136;28;8797;-75
2022/06/03 04:40:38;;;;;;;;;37.33;34.33;27.50;52.60;;;;;;4981279;28;8795;-76
2022/06/03 04:43:41;;;;;;;;;35.67;33.67;27.40;53.60;;;;;;4997324;28;8793;-76
2022/06/03 04:46:28;;;;;;;;;37.67;34.33;26.70;55.50;;;;;;4996740;28;8864;-76
2022/06/03 04:49:11;;;;;;;;;34.33;32.33;26.70;56.20;;;;;;4997034;28;8833;-77
2022/06/03 04:52:15;;;;;;;;;34.67;32.67;27.00;55.70;;;;;;4996609;28;8787;-79
2022/06/03 04:55:12;;;;;;;;;39.00;36.00;27.10;55.20;;;;;;4996675;28;8783;-76
2022/06/03 04:57:58;;;;;;;;;35.67;33.33;27.20;55.20;;;;;;4996614;28;8767;-77
2022/06/03 05:00:44;;;;;;;;;35.00;33.33;27.10;54.10;;;;;;4996344;28;8782;-78
2022/06/03 05:03:57;;;;;;;;;32.00;31.33;27.10;54.50;;;;;;4974907;28;8818;-79
2022/06/03 05:06:58;;;;;;;;;27.67;27.67;27.50;54.10;;;;;;4996066;28;8801;-78
2022/06/03 05:09:39;;;;;;;;;33.00;32.00;27.60;53.30;;;;;;4996581;28;8794;-76
2022/06/03 05:12:39;;;;;;;;;36.67;34.33;27.70;53.50;;;;;;4996503;28;9492;-77
2022/06/03 05:15:08;;;;;;;;;36.00;34.00;27.80;52.40;;;;;;4996445;28;8771;-76
2022/06/03 05:18:09;;;;;;;;;29.00;29.00;28.00;52.00;;;;;;4996326;28;8921;-76
2022/06/03 05:20:43;;;;;;;;;33.00;32.00;28.00;51.30;;;;;;4996164;28;8787;-76
2022/06/03 05:23:09;;;;;;;;;33.00;32.00;27.90;52.00;;;;;;4996357;28;8817;-76
2022/06/03 05:25:53;;;;;;;;;35.33;33.67;27.90;51.90;;;;;;4996165;28;8767;-76
2022/06/03 05:28:21;;;;;;;;;34.67;32.67;28.00;52.00;;;;;;4996141;28;8856;-76
2022/06/03 05:31:18;;;;;;;;;35.00;33.33;27.80;52.70;;;;;;4995080;28;8786;-77
2022/06/03 05:34:04;;;;;;;;;34.00;33.00;28.00;52.70;;;;;;4995900;28;8806;-76
2022/06/03 05:36:50;;;;;;;;;37.33;34.33;27.80;52.60;;;;;;4996244;28;8782;-76
2022/06/03 05:39:40;;;;;;;;;32.00;31.00;27.40;54.70;;;;;;4995998;28;8767;-76
2022/06/03 05:42:24;;;;;;;;;39.00;35.00;27.60;54.40;;;;;;4995908;28;8836;-76
2022/06/03 05:45:07;;;;;;;;;32.33;31.33;27.40;54.60;;;;;;4994610;28;8988;-76
2022/06/03 05:47:44;;;;;;;;;30.67;30.33;27.40;54.60;;;;;;4996005;28;8888;-76
2022/06/03 05:50:32;;;;;;;;;35.00;33.33;27.20;55.00;;;;;;4995890;28;9424;-76
2022/06/03 05:53:25;;;;;;;;;39.67;36.00;27.30;55.40;;;;;;4995643;28;8893;-75
2022/06/03 05:56:21;;;;;;;;;41.67;37.00;27.60;54.60;;;;;;4995596;28;8878;-77
2022/06/03 05:58:59;;;;;;;;;38.00;35.00;27.50;54.50;;;;;;4995504;28;8793;-76
2022/06/03 06:01:49;;;;;;;;;32.00;31.33;27.40;54.60;;;;;;4995174;28;8778;-75
2022/06/03 06:04:53;;;;;;;;;29.00;29.00;27.10;55.10;;;;;;4995409;28;9515;-76
2022/06/03 06:07:37;;;;;;;;;29.00;29.00;27.20;54.90;;;;;;4983351;28;8845;-76
2022/06/03 06:11:03;;;;;;;;;34.33;32.33;27.00;55.00;;;;;;4995634;28;8887;-77
2022/06/03 06:13:47;;;;;;;;;26.67;26.67;27.20;54.90;;;;;;4954443;28;9449;-77
2022/06/03 06:16:25;;;;;;;;;30.33;30.00;27.30;55.40;;;;;;4954641;28;8782;-76
2022/06/03 06:19:05;;;;;;;;;22.67;22.67;27.50;54.00;;;;;;4954358;28;8811;-75
2022/06/03 06:21:59;;;;;;;;;28.00;28.00;27.40;53.70;;;;;;4954289;28;11545;-76
2022/06/03 06:24:34;;;;;;;;;26.33;26.33;27.10;54.10;;;;;;4933790;28;11667;-76
2022/06/03 06:27:37;;;;;;;;;23.00;23.00;27.00;54.70;;;;;;4954552;28;12143;-74
2022/06/03 06:30:37;;;;;;;;;28.00;28.00;27.10;54.40;;;;;;4954193;28;11516;-77
2022/06/03 06:33:18;;;;;;;;;27.00;27.00;27.30;54.30;;;;;;4954339;28;8787;-76
2022/06/03 06:36:01;;;;;;;;;26.00;26.00;27.20;54.00;;;;;;4954281;28;8783;-75
2022/06/03 06:38:48;;;;;;;;;25.00;25.00;27.30;54.30;;;;;;4954292;28;11643;-75
2022/06/03 06:41:23;;;;;;;;;25.33;25.33;27.50;53.30;;;;;;4954065;28;12189;-75
2022/06/03 06:43:58;;;;;;;;;25.67;25.67;27.70;53.50;;;;;;4967489;28;11604;-75
2022/06/03 06:46:48;;;;;;;;;24.67;24.67;27.70;53.00;;;;;;4994874;28;11508;-75
2022/06/03 06:49:20;;;;;;;;;29.00;29.00;27.90;52.60;;;;;;4995291;28;11621;-75
2022/06/03 06:52:08;;;;;;;;;28.00;28.00;27.90;51.80;;;;;;4994867;28;8806;-76
2022/06/03 06:54:49;;;;;;;;;40.67;36.00;27.80;52.50;;;;;;4994898;28;8802;-76
2022/06/03 06:57:21;;;;;;;;;29.00;29.00;27.80;51.90;;;;;;4994886;28;8861;-75
2022/06/03 07:00:09;;;;;;;;;22.00;22.00;28.00;51.50;;;;;;4994836;28;8787;-74
2022/06/03 07:03:04;;;;;;;;;20.67;20.67;28.10;50.70;;;;;;4994882;28;11511;-74
2022/06/03 07:05:37;;;;;;;;;19.67;19.67;28.20;50.90;;;;;;4994608;28;11532;-74
2022/06/03 07:08:22;;;;;;;;;19.00;19.00;28.20;50.00;;;;;;4994607;28;11548;-75
2022/06/03 07:11:09;;;;;;;;;20.00;20.00;27.80;50.60;;;;;;4994528;28;11649;-74
2022/06/03 07:13:51;;;;;;;;;20.00;20.00;27.90;51.00;;;;;;4994768;28;11604;-75
2022/06/03 07:22:08;;;;;;;;;18.33;18.33;28.50;49.90;;;;;;4994410;28;11563;-80
2022/06/03 07:24:42;;;;;;;;;19.00;19.00;28.40;48.80;;;;;;5009421;28;11607;-77
2022/06/03 07:27:28;;;;;;;;;22.00;22.00;28.40;49.60;;;;;;4995898;28;11650;-77
2022/06/03 07:30:00;;;;;;;;;19.33;19.33;28.50;49.60;;;;;;4998346;28;11505;-77
2022/06/03 07:32:34;;;;;;;;;15.67;15.67;28.70;49.00;;;;;;4998860;28;11527;-78
2022/06/03 07:35:18;;;;;;;;;19.33;19.33;28.20;48.70;;;;;;4998186;28;11557;-75
2022/06/03 07:37:51;;;;;;;;;22.33;22.33;28.20;49.40;;;;;;4997028;28;11576;-76
2022/06/03 07:40:39;;;;;;;;;19.00;19.00;28.40;49.50;;;;;;4998327;28;11633;-76
2022/06/03 07:43:23;;;;;;;;;20.33;20.33;28.70;48.90;;;;;;4997037;28;11518;-77
2022/06/03 07:46:06;;;;;;;;;23.00;23.00;28.90;48.90;;;;;;4998012;28;11548;-75
2022/06/03 07:48:34;;;;;;;;;22.67;22.67;29.00;48.80;;;;;;4998142;28;11589;-76
2022/06/03 07:51:23;;;;;;;;;19.33;19.33;29.10;48.80;;;;;;4997829;28;11519;-75
2022/06/03 07:54:18;;;;;;;;;19.00;19.00;29.10;48.30;;;;;;4998011;28;11601;-75
2022/06/03 07:56:44;;;;;;;;;19.25;19.25;29.00;48.50;;;;;;4997751;28;11535;-77
2022/06/03 07:59:18;;;;;;;;;17.75;17.75;29.30;48.00;;;;;;4997805;28;11566;-74
2022/06/03 08:01:55;;;;;;;;;20.50;20.50;29.20;46.80;;;;;;4997763;28;8783;-75
2022/06/03 08:04:30;;;;;;;;;20.00;20.00;29.30;47.00;;;;;;4997571;28;11638;-75
2022/06/03 08:12:34;;;;;;;;;17.75;17.75;29.80;46.30;;;;;;4997422;28;12120;-75
2022/06/03 08:15:17;;;;;;;;;15.50;15.50;29.80;45.40;;;;;;4997699;28;11655;-75
2022/06/03 08:17:46;;;;;;;;;17.50;17.50;29.60;44.90;;;;;;4997139;28;11548;-73
2022/06/03 08:20:16;;;;;;;;;18.75;18.75;29.80;45.40;;;;;;4997239;28;12231;-72
2022/06/03 08:22:44;;;;;;;;;18.75;18.75;29.60;45.80;;;;;;4997309;28;11527;-74
2022/06/03 08:25:18;;;;;;;;;18.75;18.75;29.80;45.60;;;;;;4997120;28;11563;-72
2022/06/03 08:27:46;;;;;;;;;19.00;19.00;30.00;45.60;;;;;;4997088;28;11595;-73
2022/06/03 08:30:17;;;;;;;;;19.75;19.75;30.00;45.40;;;;;;4997064;28;12579;-72
2022/06/03 08:33:06;;;;;;;;;16.50;16.50;30.10;45.70;;;;;;4997089;28;11521;-72
2022/06/03 08:35:35;;;;;;;;;17.50;17.50;30.10;45.00;;;;;;4996997;28;11555;-74
2022/06/03 08:38:11;;;;;;;;;18.00;18.00;30.00;44.70;;;;;;4996100;28;11530;-75
2022/06/03 08:40:45;;;;;;;;;18.25;18.25;30.00;45.70;;;;;;4996781;28;11557;-74
2022/06/03 08:43:36;;;;;;;;;18.00;18.00;30.20;44.70;;;;;;4996876;28;11540;-75
2022/06/03 08:46:18;;;;;;;;;15.75;15.75;30.40;44.60;;;;;;4996712;28;11641;-72
2022/06/03 08:48:45;;;;;;;;;17.00;17.00;30.60;44.30;;;;;;4996769;28;11712;-72
2022/06/03 08:51:29;;;;;;;;;18.25;18.25;30.40;43.20;;;;;;4996857;28;12154;-73
2022/06/03 08:54:07;;;;;;;;;19.25;19.25;30.50;43.80;;;;;;4996709;28;11616;-74
2022/06/03 08:56:40;;;;;;;;;17.75;17.75;30.50;43.50;;;;;;4996691;28;11606;-73
2022/06/03 08:59:17;;;;;;;;;19.00;19.00;30.70;43.00;;;;;;4996656;28;11531;-73
2022/06/03 09:01:53;;;;;;;;;19.00;19.00;30.80;42.60;;;;;;4996651;28;11527;-73
2022/06/03 09:04:24;;;;;;;;;20.75;20.75;30.90;42.80;;;;;;4996477;28;11566;-72
2022/06/03 09:07:09;;;;;;;;;16.25;16.25;30.70;42.40;;;;;;4996438;28;11625;-72
2022/06/03 09:09:44;;;;;;;;;20.25;20.25;30.90;42.50;;;;;;4996673;28;11523;-74
2022/06/03 09:12:33;;;;;;;;;24.33;24.33;31.10;42.30;;;;;;4996348;28;12331;-74
2022/06/03 09:15:10;;;;;;;;;22.67;22.67;31.10;41.40;;;;;;4990795;28;11558;-73
2022/06/03 09:17:48;;;;;;;;;18.25;18.25;31.20;42.70;;;;;;4996073;28;11591;-74
2022/06/03 09:20:19;;;;;;;;;24.00;24.00;31.30;42.00;;;;;;4996353;28;11532;-72
2022/06/03 09:22:47;;;;;;;;;19.25;19.25;31.30;41.40;;;;;;4996434;28;11680;-73
2022/06/03 09:25:16;;;;;;;;;20.25;20.25;31.60;41.60;;;;;;4996319;28;11564;-73
2022/06/03 09:27:45;;;;;;;;;16.50;16.50;31.70;41.00;;;;;;4995951;28;11583;-73
2022/06/03 09:30:23;;;;;;;;;16.00;16.00;31.70;40.60;;;;;;4995982;28;11643;-72
2022/06/03 09:32:50;;;;;;;;;19.25;19.25;31.70;41.30;;;;;;4995858;28;11555;-74
2022/06/03 09:35:22;;;;;;;;;15.25;15.25;31.70;40.40;;;;;;4996148;28;12312;-74
2022/06/03 09:37:53;;;;;;;;;23.50;23.50;32.00;41.20;;;;;;4995905;28;11527;-73
2022/06/03 09:40:28;;;;;;;;;18.50;18.50;32.20;41.50;;;;;;4996143;28;11626;-74
2022/06/03 09:43:04;;;;;;;;;14.50;14.50;32.00;39.80;;;;;;4995798;28;11615;-73
2022/06/03 09:45:31;;;;;;;;;15.50;15.50;32.00;41.10;;;;;;4995801;28;11507;-73
2022/06/03 09:48:00;;;;;;;;;19.50;19.50;32.00;39.70;;;;;;4995599;28;11643;-73
2022/06/03 09:50:26;;;;;;;;;19.00;19.00;32.10;39.70;;;;;;4995382;28;11524;-72
2022/06/03 09:53:01;;;;;;;;;14.00;14.00;32.50;40.10;;;;;;4995585;28;11591;-72
2022/06/03 09:55:34;;;;;;;;;16.00;16.00;32.70;39.00;;;;;;4995785;28;11514;-72
2022/06/03 09:58:02;;;;;;;;;18.00;18.00;32.90;38.60;;;;;;4995580;28;11517;-74
2022/06/03 10:00:35;;;;;;;;;16.75;16.75;33.20;37.90;;;;;;4995698;28;11515;-71
2022/06/03 10:03:03;;;;;;;;;16.25;16.25;33.40;38.10;;;;;;4995631;28;12262;-73
2022/06/03 10:05:29;;;;;;;;;9.75;9.75;33.60;37.60;;;;;;4995343;28;11561;-74
2022/06/03 10:08:02;;;;;;;;;13.75;13.75;33.70;36.30;;;;;;4995304;28;11539;-75
2022/06/03 10:13:13;;;;;;;;;12.50;12.50;34.10;36.40;;;;;;4995380;28;11507;-76
2022/06/03 10:16:00;;;;;;;;;15.25;15.25;34.20;35.70;;;;;;4995289;28;11516;-76
2022/06/03 10:18:51;;;;;;;;;12.25;12.25;34.20;34.80;;;;;;4995399;28;11663;-76
2022/06/03 10:21:17;;;;;;;;;15.00;15.00;34.40;35.50;;;;;;4995160;28;11634;-78
2022/06/03 10:23:53;;;;;;;;;13.75;13.75;34.50;34.60;;;;;;4994328;28;11601;-79
2022/06/03 10:26:48;;;;;;;;;17.25;17.25;35.10;34.80;;;;;;4995192;28;8767;-77
2022/06/03 10:29:17;;;;;;;;;13.00;13.00;35.10;33.60;;;;;;5010483;28;11607;-78
2022/06/03 10:31:49;;;;;;;;;14.25;14.25;35.20;32.60;;;;;;4994853;28;11542;-78
2022/06/03 10:34:22;;;;;;;;;12.25;12.25;35.20;32.60;;;;;;4994746;28;12154;-78
2022/06/03 10:36:50;;;;;;;;;13.25;13.25;35.50;32.90;;;;;;4994774;28;11535;-76
2022/06/03 10:39:18;;;;;;;;;15.50;15.50;35.50;32.30;;;;;;4994916;28;11590;-77
2022/06/03 10:41:51;;;;;;;;;12.50;12.50;35.60;31.70;;;;;;4995014;28;12256;-76
2022/06/03 10:44:17;;;;;;;;;13.75;13.75;35.70;32.20;;;;;;4994770;28;11769;-77
2022/06/03 10:46:57;;;;;;;;;12.75;12.75;35.40;32.70;;;;;;4993597;28;11525;-73
2022/06/03 10:49:26;;;;;;;;;14.00;14.00;35.30;32.40;;;;;;4995214;28;8861;-73
2022/06/03 11:03:06;;;;;;;;;13.00;13.00;35.70;32.40;;;;;;4997862;28;11493;-74
2022/06/03 11:05:37;;;;;;;;;13.75;13.75;36.40;31.80;;;;;;4998926;28;11527;-74
2022/06/03 11:08:03;;;;;;;;;12.00;12.00;36.60;31.00;;;;;;4998649;28;12195;-74
2022/06/03 11:10:44;;;;;;;;;15.00;15.00;36.80;30.20;;;;;;4998622;28;11531;-74
2022/06/03 11:13:11;;;;;;;;;15.25;15.25;36.90;30.20;;;;;;4998683;28;8771;-75
2022/06/03 11:15:41;;;;;;;;;12.50;12.50;36.90;29.90;;;;;;4998481;28;11515;-75
2022/06/03 11:18:32;;;;;;;;;10.00;10.00;37.30;30.00;;;;;;4998707;28;11546;-75
2022/06/03 11:21:23;;;;;;;;;15.00;15.00;37.60;30.00;;;;;;4998308;28;11729;-77
2022/06/03 11:23:50;;;;;;;;;13.75;13.75;37.60;29.30;;;;;;4998332;28;11532;-77
2022/06/03 11:26:17;;;;;;;;;14.75;14.75;37.70;28.60;;;;;;4998107;28;11545;-76
2022/06/03 11:28:51;;;;;;;;;12.50;12.50;37.90;28.60;;;;;;4998192;28;11564;-73
2022/06/03 11:31:25;;;;;;;;;14.25;14.25;38.50;28.30;;;;;;4998259;28;11540;-73
2022/06/03 11:34:02;;;;;;;;;13.00;13.00;38.90;27.40;;;;;;4998387;28;12175;-78
2022/06/03 11:36:55;;;;;;;;;14.75;14.75;38.50;27.80;;;;;;4997203;28;11532;-76
2022/06/03 11:39:26;;;;;;;;;15.75;15.75;38.60;27.70;;;;;;4998239;28;12142;-77
2022/06/03 11:42:10;;;;;;;;;10.25;10.25;38.80;27.90;;;;;;4997691;28;11521;-76
2022/06/03 11:45:10;;;;;;;;;12.75;12.75;39.10;27.60;;;;;;4997979;28;11656;-78
2022/06/03 11:47:56;;;;;;;;;13.00;13.00;39.50;26.60;;;;;;4997750;28;11677;-79
2022/06/03 11:50:25;;;;;;;;;16.25;16.25;39.70;26.50;;;;;;4998153;28;11613;-82
2022/06/03 11:52:54;;;;;;;;;12.00;12.00;39.90;28.40;;;;;;4998181;28;11598;-75
2022/06/03 11:55:22;;;;;;;;;12.00;12.00;39.90;27.10;;;;;;4997961;28;11633;-77
2022/06/03 11:58:02;;;;;;;;;14.00;14.00;39.60;27.00;;;;;;4997985;28;11525;-78
2022/06/03 12:00:33;;;;;;;;;11.25;11.25;39.50;27.20;;;;;;4997942;28;11612;-80
2022/06/03 12:03:07;;;;;;;;;13.50;13.50;40.40;26.60;;;;;;4997710;28;11553;-81
2022/06/03 12:05:41;;;;;;;;;11.50;11.50;40.80;25.20;;;;;;4997857;28;11539;-81
2022/06/03 12:08:26;;;;;;;;;12.00;12.00;40.20;25.00;;;;;;4996817;28;11560;-75
2022/06/03 12:11:00;;;;;;;;;13.00;13.00;39.50;25.20;;;;;;4997405;28;11505;-75
2022/06/03 12:13:33;;;;;;;;;13.00;13.00;39.20;25.70;;;;;;4996784;28;11527;-77
2022/06/03 12:16:21;;;;;;;;;10.50;10.50;39.40;26.40;;;;;;4996704;28;11529;-81
2022/06/03 12:19:01;;;;;;;;;12.00;12.00;39.50;27.00;;;;;;4996952;28;12221;-79
2022/06/03 12:21:30;;;;;;;;;12.00;12.00;39.60;27.10;;;;;;4996726;28;11640;-76
2022/06/03 12:24:16;;;;;;;;;12.00;12.00;39.70;26.80;;;;;;4996800;28;11505;-76
2022/06/03 12:26:47;;;;;;;;;12.00;12.00;39.70;26.20;;;;;;4996095;28;11557;-76
2022/06/03 12:29:30;;;;;;;;;12.25;12.25;39.70;25.90;;;;;;4996614;28;11595;-76
2022/06/03 12:32:13;;;;;;;;;12.50;12.50;39.50;26.10;;;;;;4996694;28;11538;-75
2022/06/03 12:34:39;;;;;;;;;11.00;11.00;39.50;25.80;;;;;;4996676;28;11547;-76
2022/06/03 12:37:27;;;;;;;;;10.50;10.50;39.60;26.30;;;;;;4996657;28;11513;-77
2022/06/03 12:40:19;;;;;;;;;11.00;11.00;39.10;25.80;;;;;;4996264;28;11586;-75
2022/06/03 12:42:45;;;;;;;;;11.75;11.75;38.90;26.40;;;;;;4996401;28;11528;-76
2022/06/03 12:45:13;;;;;;;;;11.00;11.00;38.90;26.20;;;;;;4996358;28;11561;-76
2022/06/03 12:47:43;;;;;;;;;11.00;11.00;38.90;25.80;;;;;;4996213;28;8826;-76
2022/06/03 12:50:37;;;;;;;;;10.75;10.75;38.80;25.70;;;;;;4996540;28;11649;-75
2022/06/03 12:53:23;;;;;;;;;11.00;11.00;39.00;25.20;;;;;;4996268;28;11508;-75
2022/06/03 12:55:57;;;;;;;;;8.50;8.50;38.90;24.10;;;;;;4996002;28;11524;-75
2022/06/03 12:58:40;;;;;;;;;11.00;11.00;39.00;25.90;;;;;;4996330;28;11540;-75
2022/06/03 13:01:08;;;;;;;;;7.00;7.00;39.50;25.70;;;;;;4996289;28;11500;-75
2022/06/03 13:03:34;;;;;;;;;12.00;12.00;39.70;24.90;;;;;;4996235;28;11453;-79
2022/06/03 13:06:03;;;;;;;;;9.75;9.75;39.80;24.90;;;;;;4996090;28;12199;-78
2022/06/03 13:08:28;;;;;;;;;10.25;10.25;39.90;24.60;;;;;;4995963;28;8830;-78
2022/06/03 13:11:19;;;;;;;;;12.50;12.50;39.70;24.60;;;;;;4995722;28;11538;-77
2022/06/03 13:13:56;;;;;;;;;10.50;10.50;39.80;24.50;;;;;;4995953;28;8797;-78
2022/06/03 13:16:37;;;;;;;;;11.00;11.00;39.90;24.90;;;;;;4994309;28;11536;-80
2022/06/03 13:19:18;;;;;;;;;13.00;13.00;39.90;24.70;;;;;;4995764;28;11711;-80
2022/06/03 13:22:02;;;;;;;;;11.00;11.00;39.90;25.00;;;;;;4995562;28;12417;-80
2022/06/03 13:24:39;;;;;;;;;11.00;11.00;40.00;24.60;;;;;;4994776;28;11512;-80
2022/06/03 13:27:09;;;;;;;;;10.75;10.75;40.10;24.60;;;;;;4995837;28;11558;-79
2022/06/03 13:29:51;;;;;;;;;8.00;8.00;39.90;24.40;;;;;;4995719;28;11555;-81
2022/06/03 13:32:34;;;;;;;;;10.50;10.50;39.70;24.70;;;;;;4995628;28;11496;-80
2022/06/03 13:35:05;;;;;;;;;12.00;12.00;39.50;24.60;;;;;;4995347;28;11547;-80
2022/06/03 13:37:45;;;;;;;;;11.25;11.25;39.40;24.80;;;;;;4994911;28;11644;-80
2022/06/03 13:40:20;;;;;;;;;10.50;10.50;39.50;24.90;;;;;;4995219;28;11594;-79
2022/06/03 13:42:57;;;;;;;;;10.50;10.50;39.50;25.40;;;;;;4995013;28;11593;-80
2022/06/03 13:45:29;;;;;;;;;12.00;12.00;39.50;24.90;;;;;;4994929;28;11567;-79
2022/06/03 13:47:58;;;;;;;;;9.00;9.00;39.50;24.90;;;;;;4995224;28;11554;-77
2022/06/03 13:50:26;;;;;;;;;10.00;10.00;39.40;25.00;;;;;;4995256;28;11451;-80
2022/06/03 13:52:54;;;;;;;;;10.25;10.25;39.10;25.20;;;;;;4995267;28;11577;-81
2022/06/03 13:55:38;;;;;;;;;11.00;11.00;38.70;25.30;;;;;;4995352;28;11588;-81
2022/06/03 13:58:36;;;;;;;;;11.00;11.00;38.60;25.30;;;;;;4995746;28;11529;-81
2022/06/03 14:01:24;;;;;;;;;9.75;9.75;38.30;25.80;;;;;;4993422;28;11456;-80
2022/06/03 14:03:56;;;;;;;;;11.00;11.00;38.00;25.40;;;;;;4994356;28;11545;-84
2022/06/03 14:06:30;;;;;;;;;8.75;8.75;38.30;26.10;;;;;;4995708;28;11605;-81
2022/06/03 14:09:05;;;;;;;;;10.75;10.75;37.90;26.40;;;;;;4994937;28;12344;-83
2022/06/03 14:11:34;;;;;;;;;10.25;10.25;37.90;26.30;;;;;;4994634;28;11598;-82
2022/06/03 14:14:22;;;;;;;;;8.00;8.00;37.80;26.30;;;;;;4995278;28;11469;-83